createdAt,value
2017-05-18T00:00:03.323Z,1001.07
2017-05-18T00:10:02.862Z,1000.92
2017-05-18T00:20:02.871Z,1000.83
2017-05-18T00:30:03.375Z,1000.81
2017-05-18T00:40:02.833Z,1000.74
2017-05-18T00:50:02.778Z,1000.61
2017-05-18T01:00:03.206Z,1000.48
2017-05-18T01:10:02.728Z,1000.41
2017-05-18T01:20:02.758Z,1000.12
2017-05-18T01:30:03.226Z,1000.19
2017-05-18T01:40:02.731Z,999.99
2017-05-18T01:50:02.904Z,999.89
2017-05-18T02:00:02.380Z,999.88
2017-05-18T02:10:02.848Z,999.89
2017-05-18T02:20:02.947Z,999.95
2017-05-18T02:30:02.427Z,999.85
2017-05-18T02:40:02.890Z,999.69
2017-05-18T02:50:02.775Z,999.66
2017-05-18T03:00:03.223Z,999.59
2017-05-18T03:10:02.699Z,999.49
2017-05-18T03:20:02.724Z,999.44
2017-05-18T03:30:03.217Z,999.41
2017-05-18T03:40:02.690Z,999.33
2017-05-18T03:50:02.611Z,999.3
2017-05-18T04:00:03.075Z,999.18
2017-05-18T04:10:02.537Z,999.18
2017-05-18T04:20:03.073Z,999.05
2017-05-18T04:30:03.255Z,998.99
2017-05-18T04:40:02.640Z,999.09
2017-05-18T04:50:02.360Z,999.06
2017-05-18T05:00:02.414Z,998.96
2017-05-18T05:10:03.131Z,998.97
2017-05-18T05:20:02.670Z,998.89
2017-05-18T05:30:02.948Z,998.9
2017-05-18T05:40:03.305Z,998.78
2017-05-18T05:50:02.706Z,998.83
2017-05-18T06:00:02.996Z,998.8
2017-05-18T06:10:02.552Z,998.84
2017-05-18T06:20:03.086Z,998.94
2017-05-18T06:30:03.053Z,998.98
2017-05-18T06:40:03.238Z,998.93
2017-05-18T06:50:03.047Z,999
2017-05-18T07:00:02.439Z,999.05
2017-05-18T07:10:02.720Z,999.12
2017-05-18T07:20:03.320Z,999.05
2017-05-18T07:30:02.598Z,999
2017-05-18T07:40:02.641Z,998.94
2017-05-18T07:50:03.099Z,999.05
2017-05-18T08:00:03.092Z,999.05
2017-05-18T08:10:03.182Z,999.04
2017-05-18T08:20:02.813Z,999.05
2017-05-18T08:30:03.415Z,999.12
2017-05-18T08:40:02.403Z,999.1
2017-05-18T08:50:02.849Z,998.96
2017-05-18T09:00:02.872Z,999.06
2017-05-18T09:10:02.969Z,999.07
2017-05-18T09:20:02.612Z,999.2
2017-05-18T09:30:03.219Z,999.19
2017-05-18T09:40:02.680Z,999.4
2017-05-18T09:50:03.065Z,999.43
2017-05-18T10:00:03.108Z,999.37
2017-05-18T10:10:03.171Z,999.27
2017-05-18T10:20:02.811Z,999.4
2017-05-18T10:30:03.187Z,999.27
2017-05-18T10:40:03.269Z,999.42
2017-05-18T10:50:02.739Z,999.45
2017-05-18T11:00:02.785Z,999.47
2017-05-18T11:10:02.850Z,999.49
2017-05-18T11:20:02.403Z,999.54
2017-05-18T11:30:02.727Z,999.41
2017-05-18T11:40:02.772Z,999.5
2017-05-18T11:50:03.218Z,999.27
2017-05-18T12:00:03.232Z,999.33
2017-05-18T12:10:03.274Z,999.35
2017-05-18T12:20:02.803Z,999.37
2017-05-18T12:30:03.167Z,999.3
2017-05-18T12:40:03.192Z,999.28
2017-05-18T12:50:02.633Z,999.1
2017-05-18T13:00:02.940Z,999.19
2017-05-18T13:10:03.024Z,999.1
2017-05-18T13:20:02.578Z,999.17
2017-05-18T13:30:02.849Z,999.07
2017-05-18T13:40:02.888Z,999.07
2017-05-18T13:50:03.364Z,998.92
2017-05-18T14:00:02.392Z,998.94
2017-05-18T14:10:02.435Z,999.01
2017-05-18T14:20:02.500Z,999.28
2017-05-18T14:30:03.249Z,999.65
2017-05-18T14:40:03.330Z,999.91
2017-05-18T14:50:02.709Z,1000.14
2017-05-18T15:00:03.148Z,1000.65
2017-05-18T15:10:02.523Z,1000.42
2017-05-18T15:20:03.127Z,999.79
2017-05-18T15:30:02.678Z,999.26
2017-05-18T15:40:02.788Z,999.48
2017-05-18T15:50:03.076Z,999.39
2017-05-18T16:00:03.180Z,999.44
2017-05-18T16:10:03.160Z,999.64
2017-05-18T16:20:02.792Z,999.75
2017-05-18T16:30:02.514Z,999.93
2017-05-18T16:40:02.651Z,999.77
2017-05-18T16:50:03.172Z,999.76
2017-05-18T17:00:03.248Z,999.66
2017-05-18T17:10:03.253Z,999.63
2017-05-18T17:20:02.975Z,999.38
2017-05-18T17:30:03.014Z,999.34
2017-05-18T17:40:03.082Z,999.52
2017-05-18T17:50:02.525Z,999.46
2017-05-18T18:00:02.752Z,999.51
2017-05-18T18:10:03.181Z,999.38
2017-05-18T18:20:02.836Z,999.33
2017-05-18T18:30:03.323Z,999.46
2017-05-18T18:40:02.822Z,999.46
2017-05-18T18:50:02.650Z,999.43
2017-05-18T19:00:03.110Z,999.42
2017-05-18T19:10:02.576Z,999.38
2017-05-18T19:20:02.797Z,999.37
2017-05-18T19:30:03.241Z,999.34
2017-05-18T19:40:02.716Z,999.28
2017-05-18T19:50:02.575Z,999.36
2017-05-18T20:00:03.090Z,999.32
2017-05-18T20:10:02.567Z,999.38
2017-05-18T20:20:02.684Z,999.48
2017-05-18T20:30:03.142Z,999.42
2017-05-18T20:40:02.658Z,999.32
2017-05-18T20:50:02.529Z,999.33
2017-05-18T21:00:03.030Z,999.23
2017-05-18T21:10:02.491Z,999.22
2017-05-18T21:20:02.589Z,999.2
2017-05-18T21:30:03.057Z,999.13
2017-05-18T21:40:02.585Z,998.95
2017-05-18T21:50:02.419Z,998.99
2017-05-18T22:00:02.960Z,998.81
2017-05-18T22:10:02.448Z,998.71
2017-05-18T22:20:02.603Z,998.71
2017-05-18T22:30:03.082Z,998.67
2017-05-18T22:40:02.598Z,998.55
2017-05-18T22:50:02.432Z,998.33
2017-05-18T23:00:02.890Z,998.28
2017-05-18T23:10:03.363Z,998.1
2017-05-18T23:20:02.399Z,998.25
2017-05-18T23:30:02.881Z,998.23
2017-05-18T23:40:03.360Z,998.2
2017-05-18T23:50:03.269Z,998.17
